Bf Esperanza — V2BR8 — position and weather

sailwx.info

Track history (hours):
 
Tides and Currents Weather Stations Pressure Air Temp Water Temp Dewpoint Dewpoint Depression Visibility Wind Speed Wind Dir Waves Ship Positions

Bf Esperanza

Last reported at 2016-May-01 16:34 UTC. Time now 2016-May-01 17:29 UTC.
Position N 36°03' W 005°24'.

Length 135 m; draft 7.9 m.

Type: Ship (hazmat cat A). MMSI: 304907000.

Date/timePositionNaut miles runAvg speedWind from/ knotsBaromVisibWave heightAir tempDewpointWater temp
2016-May-01 16:34N 36°03' W 005°24'219 6.8
2016-Apr-30 08:20N 37°12' W 001°05'1012.6
2016-Apr-30 07:33N 37°19' W 000°55'1212.5
2016-Apr-30 06:33N 37°27' W 000°43'1212.5
2016-Apr-30 05:33N 37°36' W 000°32'1212.4
2016-Apr-30 04:33N 37°46' W 000°23'1312.4
2016-Apr-30 03:32N 37°56' W 000°14'9110.1
2016-Apr-29 18:33N 39°27' W 000°19'0 0.2
2016-Apr-29 17:32N 39°27' W 000°19'0 0.0
2016-Apr-29 14:28N 39°27' W 000°19'0 0.0
2016-Apr-29 13:33N 39°27' W 000°19'0 0.0
2016-Apr-29 12:33N 39°27' W 000°19'0 0.0
2016-Apr-29 11:26N 39°27' W 000°19'0 0.0
2016-Apr-29 10:32N 39°27' W 000°19'0 0.0
2016-Apr-29 08:31N 39°27' W 000°19'0 0.0
2016-Apr-29 07:31N 39°27' W 000°19'0 0.0
2016-Apr-29 06:33N 39°27' W 000°19'3 3.0
2016-Apr-29 05:33N 39°25' W 000°16'5 5.5
2016-Apr-29 04:33N 39°29' W 000°11'6713.4
2016-Apr-28 23:32N 40°14' E 000°54'1413.4
2016-Apr-28 22:29N 40°23' E 001°08'1313.3
2016-Apr-28 21:33N 40°32' E 001°20'1413.6
2016-Apr-28 20:31N 40°41' E 001°34'17912.6
2016-Apr-28 06:22N 43°00' E 004°05'2813.9
2016-Apr-28 04:20N 43°08' E 004°42'1313.9
2016-Apr-28 03:23N 43°10' E 005°00'1012.2
2016-Apr-28 02:33N 43°16' E 005°11'8 0.7
2016-Apr-27 14:32N 43°21' E 005°20'1111.0
2016-Apr-27 13:33N 43°13' E 005°10'4 1.3
2016-Apr-27 10:05N 43°10' E 005°05'12 7.5
2016-Apr-27 08:33N 43°09' E 004°50'160 9.2
2016-Apr-26 15:14N 41°21' E 002°10'0 0.0
2016-Apr-26 11:33N 41°21' E 002°10'11 0.3
2016-Apr-24 21:16N 41°16' E 002°23'1013.7
2016-Apr-24 20:31N 41°09' E 002°13'1313.4
2016-Apr-24 19:33N 41°01' E 002°00'1414.1
2016-Apr-24 18:33N 40°52' E 001°46'1414.5
2016-Apr-24 17:33N 40°41' E 001°32'1514.7
2016-Apr-24 16:33N 40°28' E 001°24'1514.9
2016-Apr-24 15:33N 40°15' E 001°16'1515.2
2016-Apr-24 14:33N 40°00' E 001°09'12715.1
2016-Apr-24 06:08N 38°06' W 000°03'915.9
2016-Apr-24 05:33N 37°58' W 000°10'1615.7
2016-Apr-24 04:33N 37°45' W 000°21'1515.4
2016-Apr-24 03:33N 37°33' W 000°32'1815.4
2016-Apr-24 02:23N 37°20' W 000°48'1715.4
2016-Apr-24 01:17N 37°08' W 001°03'21315.5
2016-Apr-23 11:34N 35°59' W 005°14'  
Track history (hours):
 
Tides and Currents Weather Stations Pressure Air Temp Water Temp Dewpoint Dewpoint Depression Visibility Wind Speed Wind Dir Waves Ship Positions

Bf Esperanza

Last reported at 2016-May-01 16:34 UTC. Time now 2016-May-01 17:29 UTC.
Position N 36°03' W 005°24'.

Length 135 m; draft 7.9 m.

Type: Ship (hazmat cat A). MMSI: 304907000.

Date/timePositionNaut miles runAvg speedWind from/ knotsBaromVisibWave heightAir tempDewpointWater temp
2016-May-01 16:34N 36°03' W 005°24'219 6.8
2016-Apr-30 08:20N 37°12' W 001°05'1012.6
2016-Apr-30 07:33N 37°19' W 000°55'1212.5
2016-Apr-30 06:33N 37°27' W 000°43'1212.5
2016-Apr-30 05:33N 37°36' W 000°32'1212.4
2016-Apr-30 04:33N 37°46' W 000°23'1312.4
2016-Apr-30 03:32N 37°56' W 000°14'9110.1
2016-Apr-29 18:33N 39°27' W 000°19'0 0.2
2016-Apr-29 17:32N 39°27' W 000°19'0 0.0
2016-Apr-29 14:28N 39°27' W 000°19'0 0.0
2016-Apr-29 13:33N 39°27' W 000°19'0 0.0
2016-Apr-29 12:33N 39°27' W 000°19'0 0.0
2016-Apr-29 11:26N 39°27' W 000°19'0 0.0
2016-Apr-29 10:32N 39°27' W 000°19'0 0.0
2016-Apr-29 08:31N 39°27' W 000°19'0 0.0
2016-Apr-29 07:31N 39°27' W 000°19'0 0.0
2016-Apr-29 06:33N 39°27' W 000°19'3 3.0
2016-Apr-29 05:33N 39°25' W 000°16'5 5.5
2016-Apr-29 04:33N 39°29' W 000°11'6713.4
2016-Apr-28 23:32N 40°14' E 000°54'1413.4
2016-Apr-28 22:29N 40°23' E 001°08'1313.3
2016-Apr-28 21:33N 40°32' E 001°20'1413.6
2016-Apr-28 20:31N 40°41' E 001°34'17912.6
2016-Apr-28 06:22N 43°00' E 004°05'2813.9
2016-Apr-28 04:20N 43°08' E 004°42'1313.9
2016-Apr-28 03:23N 43°10' E 005°00'1012.2
2016-Apr-28 02:33N 43°16' E 005°11'8 0.7
2016-Apr-27 14:32N 43°21' E 005°20'1111.0
2016-Apr-27 13:33N 43°13' E 005°10'4 1.3
2016-Apr-27 10:05N 43°10' E 005°05'12 7.5
2016-Apr-27 08:33N 43°09' E 004°50'160 9.2
2016-Apr-26 15:14N 41°21' E 002°10'0 0.0
2016-Apr-26 11:33N 41°21' E 002°10'11 0.3
2016-Apr-24 21:16N 41°16' E 002°23'1013.7
2016-Apr-24 20:31N 41°09' E 002°13'1313.4
2016-Apr-24 19:33N 41°01' E 002°00'1414.1
2016-Apr-24 18:33N 40°52' E 001°46'1414.5
2016-Apr-24 17:33N 40°41' E 001°32'1514.7
2016-Apr-24 16:33N 40°28' E 001°24'1514.9
2016-Apr-24 15:33N 40°15' E 001°16'1515.2
2016-Apr-24 14:33N 40°00' E 001°09'12715.1
2016-Apr-24 06:08N 38°06' W 000°03'915.9
2016-Apr-24 05:33N 37°58' W 000°10'1615.7
2016-Apr-24 04:33N 37°45' W 000°21'1515.4
2016-Apr-24 03:33N 37°33' W 000°32'1815.4
2016-Apr-24 02:23N 37°20' W 000°48'1715.4
2016-Apr-24 01:17N 37°08' W 001°03'21315.5
2016-Apr-23 11:34N 35°59' W 005°14'  

Dump ship's entire track history